sensor_id;sensor_type;location;lat;lon;timestamp;P1;durP1;ratioP1;P2;durP2;ratioP2
77022;SDS011;65952;51.440;-2.054;2022-12-18T00:01:51;13.90;;;6.43;;
77022;SDS011;65952;51.440;-2.054;2022-12-18T00:04:21;13.80;;;5.88;;
77022;SDS011;65952;51.440;-2.054;2022-12-18T00:06:49;12.77;;;5.22;;
77022;SDS011;65952;51.440;-2.054;2022-12-18T00:09:14;12.13;;;4.95;;
77022;SDS011;65952;51.440;-2.054;2022-12-18T00:11:40;11.25;;;5.53;;
77022;SDS011;65952;51.440;-2.054;2022-12-18T00:14:06;10.38;;;4.45;;
77022;SDS011;65952;51.440;-2.054;2022-12-18T00:16:31;10.50;;;5.30;;
77022;SDS011;65952;51.440;-2.054;2022-12-18T00:18:58;13.50;;;5.30;;
77022;SDS011;65952;51.440;-2.054;2022-12-18T00:21:25;9.45;;;4.82;;
77022;SDS011;65952;51.440;-2.054;2022-12-18T00:23:51;12.25;;;5.38;;
77022;SDS011;65952;51.440;-2.054;2022-12-18T00:26:21;13.90;;;6.13;;
77022;SDS011;65952;51.440;-2.054;2022-12-18T00:28:48;11.20;;;5.10;;
77022;SDS011;65952;51.440;-2.054;2022-12-18T00:31:16;15.82;;;6.18;;
77022;SDS011;65952;51.440;-2.054;2022-12-18T00:33:44;14.30;;;6.32;;
77022;SDS011;65952;51.440;-2.054;2022-12-18T00:36:10;15.90;;;6.72;;
77022;SDS011;65952;51.440;-2.054;2022-12-18T00:38:38;14.02;;;6.93;;
77022;SDS011;65952;51.440;-2.054;2022-12-18T00:41:04;14.85;;;6.55;;
77022;SDS011;65952;51.440;-2.054;2022-12-18T00:43:30;16.50;;;5.75;;
77022;SDS011;65952;51.440;-2.054;2022-12-18T00:45:55;13.13;;;6.90;;
77022;SDS011;65952;51.440;-2.054;2022-12-18T00:48:20;15.35;;;7.03;;
77022;SDS011;65952;51.440;-2.054;2022-12-18T00:50:49;13.80;;;5.85;;
77022;SDS011;65952;51.440;-2.054;2022-12-18T00:53:16;15.07;;;7.13;;
77022;SDS011;65952;51.440;-2.054;2022-12-18T00:55:41;16.35;;;7.22;;
77022;SDS011;65952;51.440;-2.054;2022-12-18T00:58:08;17.65;;;6.28;;
77022;SDS011;65952;51.440;-2.054;2022-12-18T01:00:34;15.23;;;7.25;;
77022;SDS011;65952;51.440;-2.054;2022-12-18T01:03:00;15.35;;;7.60;;
77022;SDS011;65952;51.440;-2.054;2022-12-18T01:05:25;17.73;;;7.45;;
77022;SDS011;65952;51.440;-2.054;2022-12-18T01:07:51;18.27;;;7.63;;
77022;SDS011;65952;51.440;-2.054;2022-12-18T01:10:17;14.25;;;6.97;;
77022;SDS011;65952;51.440;-2.054;2022-12-18T01:12:43;13.68;;;7.07;;
77022;SDS011;65952;51.440;-2.054;2022-12-18T01:15:09;15.70;;;7.07;;
77022;SDS011;65952;51.440;-2.054;2022-12-18T01:17:35;16.52;;;7.53;;
77022;SDS011;65952;51.440;-2.054;2022-12-18T01:20:00;15.95;;;6.68;;
77022;SDS011;65952;51.440;-2.054;2022-12-18T01:22:26;15.60;;;6.60;;
77022;SDS011;65952;51.440;-2.054;2022-12-18T01:24:51;19.23;;;7.90;;
77022;SDS011;65952;51.440;-2.054;2022-12-18T01:27:17;16.58;;;6.90;;
77022;SDS011;65952;51.440;-2.054;2022-12-18T01:29:42;16.65;;;6.65;;
77022;SDS011;65952;51.440;-2.054;2022-12-18T01:32:08;15.95;;;7.22;;
77022;SDS011;65952;51.440;-2.054;2022-12-18T01:34:35;12.80;;;5.78;;
77022;SDS011;65952;51.440;-2.054;2022-12-18T01:37:02;13.98;;;6.57;;
77022;SDS011;65952;51.440;-2.054;2022-12-18T01:39:28;10.82;;;5.47;;
77022;SDS011;65952;51.440;-2.054;2022-12-18T01:41:54;15.13;;;6.82;;
77022;SDS011;65952;51.440;-2.054;2022-12-18T01:47:18;16.63;;;7.65;;
77022;SDS011;65952;51.440;-2.054;2022-12-18T01:49:56;12.90;;;7.13;;
77022;SDS011;65952;51.440;-2.054;2022-12-18T01:52:24;18.90;;;7.22;;
77022;SDS011;65952;51.440;-2.054;2022-12-18T01:54:54;13.27;;;6.28;;
77022;SDS011;65952;51.440;-2.054;2022-12-18T01:57:20;16.98;;;8.25;;
77022;SDS011;65952;51.440;-2.054;2022-12-18T01:59:47;15.88;;;7.78;;
77022;SDS011;65952;51.440;-2.054;2022-12-18T02:02:17;15.38;;;7.07;;
77022;SDS011;65952;51.440;-2.054;2022-12-18T02:04:44;16.27;;;7.20;;
77022;SDS011;65952;51.440;-2.054;2022-12-18T02:10:57;11.90;;;6.22;;
77022;SDS011;65952;51.440;-2.054;2022-12-18T02:13:11;11.27;;;5.63;;
77022;SDS011;65952;51.440;-2.054;2022-12-18T02:15:54;18.17;;;7.20;;
77022;SDS011;65952;51.440;-2.054;2022-12-18T02:18:32;12.15;;;6.15;;
77022;SDS011;65952;51.440;-2.054;2022-12-18T02:26:46;20.90;;;8.05;;
77022;SDS011;65952;51.440;-2.054;2022-12-18T02:29:16;17.38;;;7.22;;
77022;SDS011;65952;51.440;-2.054;2022-12-18T02:31:47;15.02;;;6.70;;
77022;SDS011;65952;51.440;-2.054;2022-12-18T02:34:17;15.98;;;8.05;;
77022;SDS011;65952;51.440;-2.054;2022-12-18T02:36:46;19.88;;;7.93;;
77022;SDS011;65952;51.440;-2.054;2022-12-18T02:39:13;16.35;;;7.18;;
77022;SDS011;65952;51.440;-2.054;2022-12-18T02:41:40;17.65;;;8.15;;
77022;SDS011;65952;51.440;-2.054;2022-12-18T02:44:07;18.00;;;7.40;;
77022;SDS011;65952;51.440;-2.054;2022-12-18T02:46:48;16.33;;;7.63;;
77022;SDS011;65952;51.440;-2.054;2022-12-18T02:58:30;18.88;;;8.32;;
77022;SDS011;65952;51.440;-2.054;2022-12-18T03:01:01;17.98;;;8.73;;
77022;SDS011;65952;51.440;-2.054;2022-12-18T03:03:40;18.27;;;7.45;;
77022;SDS011;65952;51.440;-2.054;2022-12-18T03:06:12;20.42;;;8.20;;
77022;SDS011;65952;51.440;-2.054;2022-12-18T03:08:48;17.08;;;7.63;;
77022;SDS011;65952;51.440;-2.054;2022-12-18T03:11:17;21.60;;;8.55;;
77022;SDS011;65952;51.440;-2.054;2022-12-18T03:14:03;21.08;;;9.10;;
77022;SDS011;65952;51.440;-2.054;2022-12-18T03:16:32;26.50;;;9.40;;
77022;SDS011;65952;51.440;-2.054;2022-12-18T03:19:04;18.75;;;8.77;;
77022;SDS011;65952;51.440;-2.054;2022-12-18T03:21:38;19.55;;;9.40;;
77022;SDS011;65952;51.440;-2.054;2022-12-18T03:24:08;19.90;;;8.55;;
77022;SDS011;65952;51.440;-2.054;2022-12-18T03:26:35;18.30;;;8.05;;
77022;SDS011;65952;51.440;-2.054;2022-12-18T03:29:09;23.55;;;9.70;;
77022;SDS011;65952;51.440;-2.054;2022-12-18T03:31:40;19.42;;;8.50;;
77022;SDS011;65952;51.440;-2.054;2022-12-18T03:34:13;23.00;;;9.38;;
77022;SDS011;65952;51.440;-2.054;2022-12-18T03:36:44;19.08;;;9.20;;
77022;SDS011;65952;51.440;-2.054;2022-12-18T03:39:10;22.85;;;9.40;;
77022;SDS011;65952;51.440;-2.054;2022-12-18T03:41:47;21.92;;;9.48;;
77022;SDS011;65952;51.440;-2.054;2022-12-18T03:49:45;23.48;;;9.73;;
77022;SDS011;65952;51.440;-2.054;2022-12-18T03:52:20;25.27;;;8.85;;
77022;SDS011;65952;51.440;-2.054;2022-12-18T03:54:51;20.05;;;8.68;;
77022;SDS011;65952;51.440;-2.054;2022-12-18T03:57:22;18.83;;;8.55;;
77022;SDS011;65952;51.440;-2.054;2022-12-18T03:59:52;22.47;;;9.67;;
77022;SDS011;65952;51.440;-2.054;2022-12-18T04:02:22;19.52;;;8.38;;
77022;SDS011;65952;51.440;-2.054;2022-12-18T04:04:50;21.38;;;9.30;;
77022;SDS011;65952;51.440;-2.054;2022-12-18T04:07:18;22.83;;;9.07;;
77022;SDS011;65952;51.440;-2.054;2022-12-18T04:09:46;20.33;;;8.93;;
77022;SDS011;65952;51.440;-2.054;2022-12-18T04:12:14;19.23;;;8.18;;
77022;SDS011;65952;51.440;-2.054;2022-12-18T04:14:40;20.52;;;9.02;;
77022;SDS011;65952;51.440;-2.054;2022-12-18T04:17:05;19.08;;;6.97;;
77022;SDS011;65952;51.440;-2.054;2022-12-18T04:19:31;14.88;;;6.85;;
77022;SDS011;65952;51.440;-2.054;2022-12-18T04:21:56;23.25;;;9.13;;
77022;SDS011;65952;51.440;-2.054;2022-12-18T04:24:21;20.15;;;8.85;;
77022;SDS011;65952;51.440;-2.054;2022-12-18T04:26:47;16.90;;;7.85;;
77022;SDS011;65952;51.440;-2.054;2022-12-18T04:29:12;16.60;;;8.35;;
77022;SDS011;65952;51.440;-2.054;2022-12-18T04:31:38;17.83;;;7.68;;
77022;SDS011;65952;51.440;-2.054;2022-12-18T04:34:03;19.27;;;7.50;;
77022;SDS011;65952;51.440;-2.054;2022-12-18T04:36:28;17.90;;;7.40;;
77022;SDS011;65952;51.440;-2.054;2022-12-18T04:38:54;15.32;;;7.88;;
77022;SDS011;65952;51.440;-2.054;2022-12-18T04:41:20;17.15;;;7.82;;
77022;SDS011;65952;51.440;-2.054;2022-12-18T04:43:45;19.55;;;8.10;;
77022;SDS011;65952;51.440;-2.054;2022-12-18T04:46:11;17.48;;;7.05;;
77022;SDS011;65952;51.440;-2.054;2022-12-18T04:48:36;15.75;;;7.45;;
77022;SDS011;65952;51.440;-2.054;2022-12-18T04:51:03;16.52;;;7.38;;
77022;SDS011;65952;51.440;-2.054;2022-12-18T04:53:29;15.35;;;7.70;;
77022;SDS011;65952;51.440;-2.054;2022-12-18T04:58:34;17.38;;;7.15;;
77022;SDS011;65952;51.440;-2.054;2022-12-18T05:01:00;21.08;;;7.85;;
77022;SDS011;65952;51.440;-2.054;2022-12-18T05:03:26;18.58;;;7.85;;
77022;SDS011;65952;51.440;-2.054;2022-12-18T05:05:51;16.65;;;7.20;;
77022;SDS011;65952;51.440;-2.054;2022-12-18T05:08:17;22.60;;;8.40;;
77022;SDS011;65952;51.440;-2.054;2022-12-18T05:10:43;19.23;;;7.70;;
77022;SDS011;65952;51.440;-2.054;2022-12-18T05:13:08;17.38;;;7.43;;
77022;SDS011;65952;51.440;-2.054;2022-12-18T05:15:34;22.13;;;7.70;;
77022;SDS011;65952;51.440;-2.054;2022-12-18T05:18:00;18.33;;;7.85;;
77022;SDS011;65952;51.440;-2.054;2022-12-18T05:20:26;16.48;;;6.65;;
77022;SDS011;65952;51.440;-2.054;2022-12-18T05:22:52;17.05;;;7.45;;
77022;SDS011;65952;51.440;-2.054;2022-12-18T05:25:18;21.05;;;7.95;;
77022;SDS011;65952;51.440;-2.054;2022-12-18T05:27:44;17.27;;;7.57;;
77022;SDS011;65952;51.440;-2.054;2022-12-18T05:30:10;15.55;;;6.82;;
77022;SDS011;65952;51.440;-2.054;2022-12-18T05:32:39;20.17;;;7.90;;
77022;SDS011;65952;51.440;-2.054;2022-12-18T05:35:05;17.42;;;7.55;;
77022;SDS011;65952;51.440;-2.054;2022-12-18T05:37:32;15.90;;;7.18;;
77022;SDS011;65952;51.440;-2.054;2022-12-18T05:39:58;17.17;;;7.63;;
77022;SDS011;65952;51.440;-2.054;2022-12-18T05:42:23;15.63;;;7.40;;
77022;SDS011;65952;51.440;-2.054;2022-12-18T05:44:49;17.23;;;7.07;;
77022;SDS011;65952;51.440;-2.054;2022-12-18T05:47:15;13.43;;;6.82;;
77022;SDS011;65952;51.440;-2.054;2022-12-18T05:49:40;16.60;;;8.38;;
77022;SDS011;65952;51.440;-2.054;2022-12-18T05:52:06;21.15;;;8.75;;
77022;SDS011;65952;51.440;-2.054;2022-12-18T05:54:31;18.73;;;8.25;;
77022;SDS011;65952;51.440;-2.054;2022-12-18T05:56:57;18.73;;;7.32;;
77022;SDS011;65952;51.440;-2.054;2022-12-18T05:59:22;18.58;;;8.27;;
77022;SDS011;65952;51.440;-2.054;2022-12-18T06:01:48;19.95;;;8.57;;
77022;SDS011;65952;51.440;-2.054;2022-12-18T06:04:13;19.90;;;7.03;;
77022;SDS011;65952;51.440;-2.054;2022-12-18T06:06:39;12.98;;;6.15;;
77022;SDS011;65952;51.440;-2.054;2022-12-18T06:09:04;13.27;;;5.78;;
77022;SDS011;65952;51.440;-2.054;2022-12-18T06:11:33;18.23;;;8.02;;
77022;SDS011;65952;51.440;-2.054;2022-12-18T06:14:00;16.42;;;7.00;;
77022;SDS011;65952;51.440;-2.054;2022-12-18T06:16:27;18.88;;;8.00;;
77022;SDS011;65952;51.440;-2.054;2022-12-18T06:18:55;16.52;;;7.50;;
77022;SDS011;65952;51.440;-2.054;2022-12-18T06:21:22;14.45;;;6.75;;
77022;SDS011;65952;51.440;-2.054;2022-12-18T06:23:48;14.25;;;7.32;;
77022;SDS011;65952;51.440;-2.054;2022-12-18T06:26:13;15.27;;;6.72;;
77022;SDS011;65952;51.440;-2.054;2022-12-18T06:28:39;16.17;;;6.90;;
77022;SDS011;65952;51.440;-2.054;2022-12-18T06:31:05;14.85;;;7.45;;
77022;SDS011;65952;51.440;-2.054;2022-12-18T06:33:31;15.25;;;6.10;;
77022;SDS011;65952;51.440;-2.054;2022-12-18T06:36:01;16.10;;;7.25;;
77022;SDS011;65952;51.440;-2.054;2022-12-18T06:38:32;14.93;;;6.18;;
77022;SDS011;65952;51.440;-2.054;2022-12-18T06:40:59;13.40;;;6.72;;
77022;SDS011;65952;51.440;-2.054;2022-12-18T06:43:25;14.45;;;7.00;;
77022;SDS011;65952;51.440;-2.054;2022-12-18T06:45:50;15.95;;;6.10;;
77022;SDS011;65952;51.440;-2.054;2022-12-18T06:48:21;15.18;;;7.10;;
77022;SDS011;65952;51.440;-2.054;2022-12-18T06:50:47;18.15;;;7.72;;
77022;SDS011;65952;51.440;-2.054;2022-12-18T06:53:13;17.80;;;8.73;;
77022;SDS011;65952;51.440;-2.054;2022-12-18T06:55:38;19.67;;;8.20;;
77022;SDS011;65952;51.440;-2.054;2022-12-18T06:58:03;15.07;;;6.43;;
77022;SDS011;65952;51.440;-2.054;2022-12-18T07:00:29;16.17;;;6.68;;
77022;SDS011;65952;51.440;-2.054;2022-12-18T07:02:54;14.25;;;6.75;;
77022;SDS011;65952;51.440;-2.054;2022-12-18T07:05:20;18.33;;;7.25;;
77022;SDS011;65952;51.440;-2.054;2022-12-18T07:07:45;17.63;;;6.80;;
77022;SDS011;65952;51.440;-2.054;2022-12-18T07:10:10;15.23;;;6.60;;
77022;SDS011;65952;51.440;-2.054;2022-12-18T07:12:36;19.17;;;7.78;;
77022;SDS011;65952;51.440;-2.054;2022-12-18T07:15:01;17.88;;;6.25;;
77022;SDS011;65952;51.440;-2.054;2022-12-18T07:17:27;18.63;;;7.55;;
77022;SDS011;65952;51.440;-2.054;2022-12-18T07:19:53;14.82;;;6.72;;
77022;SDS011;65952;51.440;-2.054;2022-12-18T07:22:18;16.05;;;7.05;;
77022;SDS011;65952;51.440;-2.054;2022-12-18T07:24:44;20.20;;;6.93;;
77022;SDS011;65952;51.440;-2.054;2022-12-18T07:27:09;18.70;;;7.22;;
77022;SDS011;65952;51.440;-2.054;2022-12-18T07:29:34;13.68;;;6.10;;
77022;SDS011;65952;51.440;-2.054;2022-12-18T07:32:00;17.42;;;7.75;;
77022;SDS011;65952;51.440;-2.054;2022-12-18T07:34:25;15.95;;;7.38;;
77022;SDS011;65952;51.440;-2.054;2022-12-18T07:36:51;19.48;;;7.35;;
77022;SDS011;65952;51.440;-2.054;2022-12-18T07:39:16;18.73;;;7.57;;
77022;SDS011;65952;51.440;-2.054;2022-12-18T07:41:42;17.05;;;7.60;;
77022;SDS011;65952;51.440;-2.054;2022-12-18T07:44:11;15.52;;;7.60;;
77022;SDS011;65952;51.440;-2.054;2022-12-18T07:46:37;19.33;;;7.63;;
77022;SDS011;65952;51.440;-2.054;2022-12-18T07:49:03;18.50;;;7.30;;
77022;SDS011;65952;51.440;-2.054;2022-12-18T07:51:28;15.73;;;6.28;;
77022;SDS011;65952;51.440;-2.054;2022-12-18T07:53:53;16.50;;;7.82;;
77022;SDS011;65952;51.440;-2.054;2022-12-18T07:56:19;14.00;;;7.95;;
77022;SDS011;65952;51.440;-2.054;2022-12-18T07:58:45;20.27;;;7.95;;
77022;SDS011;65952;51.440;-2.054;2022-12-18T08:01:11;17.65;;;8.45;;
77022;SDS011;65952;51.440;-2.054;2022-12-18T08:03:37;17.10;;;7.15;;
77022;SDS011;65952;51.440;-2.054;2022-12-18T08:06:05;19.83;;;7.47;;
77022;SDS011;65952;51.440;-2.054;2022-12-18T08:08:33;22.50;;;7.70;;
77022;SDS011;65952;51.440;-2.054;2022-12-18T08:10:59;16.73;;;7.38;;
77022;SDS011;65952;51.440;-2.054;2022-12-18T08:13:25;18.70;;;7.70;;
77022;SDS011;65952;51.440;-2.054;2022-12-18T08:15:55;19.10;;;7.45;;
77022;SDS011;65952;51.440;-2.054;2022-12-18T08:18:24;18.63;;;7.57;;
77022;SDS011;65952;51.440;-2.054;2022-12-18T08:20:50;15.10;;;8.02;;
77022;SDS011;65952;51.440;-2.054;2022-12-18T08:23:16;20.50;;;7.85;;
77022;SDS011;65952;51.440;-2.054;2022-12-18T08:25:41;16.38;;;6.88;;
77022;SDS011;65952;51.440;-2.054;2022-12-18T08:28:07;15.15;;;6.95;;
77022;SDS011;65952;51.440;-2.054;2022-12-18T08:30:32;14.80;;;7.65;;
77022;SDS011;65952;51.440;-2.054;2022-12-18T08:32:57;15.98;;;7.50;;
77022;SDS011;65952;51.440;-2.054;2022-12-18T08:35:23;17.15;;;8.23;;
77022;SDS011;65952;51.440;-2.054;2022-12-18T08:37:48;18.52;;;8.35;;
77022;SDS011;65952;51.440;-2.054;2022-12-18T08:40:14;16.88;;;6.63;;
77022;SDS011;65952;51.440;-2.054;2022-12-18T08:42:40;15.05;;;7.00;;
77022;SDS011;65952;51.440;-2.054;2022-12-18T08:45:24;19.05;;;7.95;;
77022;SDS011;65952;51.440;-2.054;2022-12-18T08:47:49;18.17;;;7.95;;
77022;SDS011;65952;51.440;-2.054;2022-12-18T08:50:15;15.52;;;7.82;;
77022;SDS011;65952;51.440;-2.054;2022-12-18T08:52:40;22.10;;;10.88;;
77022;SDS011;65952;51.440;-2.054;2022-12-18T08:55:06;17.98;;;8.23;;
77022;SDS011;65952;51.440;-2.054;2022-12-18T08:57:32;18.65;;;8.85;;
77022;SDS011;65952;51.440;-2.054;2022-12-18T08:59:57;15.40;;;7.00;;
77022;SDS011;65952;51.440;-2.054;2022-12-18T09:02:22;18.08;;;8.55;;
77022;SDS011;65952;51.440;-2.054;2022-12-18T09:04:48;16.75;;;7.82;;
77022;SDS011;65952;51.440;-2.054;2022-12-18T09:07:13;17.05;;;7.53;;
77022;SDS011;65952;51.440;-2.054;2022-12-18T09:09:39;15.30;;;6.93;;
77022;SDS011;65952;51.440;-2.054;2022-12-18T09:12:04;18.80;;;7.88;;
77022;SDS011;65952;51.440;-2.054;2022-12-18T09:14:30;20.58;;;8.95;;
77022;SDS011;65952;51.440;-2.054;2022-12-18T09:16:55;19.65;;;8.93;;
77022;SDS011;65952;51.440;-2.054;2022-12-18T09:19:20;19.60;;;7.43;;
77022;SDS011;65952;51.440;-2.054;2022-12-18T09:21:46;19.92;;;8.77;;
77022;SDS011;65952;51.440;-2.054;2022-12-18T09:24:12;26.65;;;9.90;;
77022;SDS011;65952;51.440;-2.054;2022-12-18T09:26:38;16.75;;;8.40;;
77022;SDS011;65952;51.440;-2.054;2022-12-18T09:29:03;23.92;;;8.73;;
77022;SDS011;65952;51.440;-2.054;2022-12-18T09:31:29;22.23;;;9.07;;
77022;SDS011;65952;51.440;-2.054;2022-12-18T09:33:55;21.52;;;9.13;;
77022;SDS011;65952;51.440;-2.054;2022-12-18T09:36:21;18.73;;;8.60;;
77022;SDS011;65952;51.440;-2.054;2022-12-18T09:38:47;14.05;;;6.80;;
77022;SDS011;65952;51.440;-2.054;2022-12-18T09:44:00;19.95;;;9.60;;
77022;SDS011;65952;51.440;-2.054;2022-12-18T09:46:29;24.92;;;9.55;;
77022;SDS011;65952;51.440;-2.054;2022-12-18T09:49:01;21.35;;;9.25;;
77022;SDS011;65952;51.440;-2.054;2022-12-18T09:54:52;18.65;;;7.72;;
77022;SDS011;65952;51.440;-2.054;2022-12-18T09:57:15;18.08;;;8.63;;
77022;SDS011;65952;51.440;-2.054;2022-12-18T09:59:46;18.60;;;8.52;;
77022;SDS011;65952;51.440;-2.054;2022-12-18T10:02:17;19.83;;;9.18;;
77022;SDS011;65952;51.440;-2.054;2022-12-18T10:04:50;22.58;;;10.98;;
77022;SDS011;65952;51.440;-2.054;2022-12-18T10:10:39;28.98;;;10.48;;
77022;SDS011;65952;51.440;-2.054;2022-12-18T10:13:35;25.90;;;10.05;;
77022;SDS011;65952;51.440;-2.054;2022-12-18T10:16:14;23.05;;;9.93;;
77022;SDS011;65952;51.440;-2.054;2022-12-18T10:21:18;29.23;;;10.73;;
77022;SDS011;65952;51.440;-2.054;2022-12-18T10:23:51;19.20;;;8.45;;
77022;SDS011;65952;51.440;-2.054;2022-12-18T10:26:26;20.95;;;10.70;;
77022;SDS011;65952;51.440;-2.054;2022-12-18T10:28:51;20.73;;;9.90;;
77022;SDS011;65952;51.440;-2.054;2022-12-18T10:31:19;21.83;;;10.23;;
77022;SDS011;65952;51.440;-2.054;2022-12-18T10:34:02;25.83;;;10.45;;
77022;SDS011;65952;51.440;-2.054;2022-12-18T10:36:52;24.13;;;10.48;;
77022;SDS011;65952;51.440;-2.054;2022-12-18T10:39:27;22.30;;;11.02;;
77022;SDS011;65952;51.440;-2.054;2022-12-18T10:41:59;20.83;;;9.95;;
77022;SDS011;65952;51.440;-2.054;2022-12-18T10:44:37;18.98;;;8.63;;
77022;SDS011;65952;51.440;-2.054;2022-12-18T10:47:03;26.15;;;9.35;;
77022;SDS011;65952;51.440;-2.054;2022-12-18T10:49:32;31.40;;;11.23;;
77022;SDS011;65952;51.440;-2.054;2022-12-18T10:52:07;22.73;;;10.10;;
77022;SDS011;65952;51.440;-2.054;2022-12-18T10:54:45;22.45;;;10.85;;
77022;SDS011;65952;51.440;-2.054;2022-12-18T10:57:34;24.73;;;11.25;;
77022;SDS011;65952;51.440;-2.054;2022-12-18T11:00:21;17.52;;;8.95;;
77022;SDS011;65952;51.440;-2.054;2022-12-18T11:02:53;21.88;;;9.40;;
77022;SDS011;65952;51.440;-2.054;2022-12-18T11:05:52;24.45;;;10.18;;
77022;SDS011;65952;51.440;-2.054;2022-12-18T11:08:19;22.08;;;11.43;;
77022;SDS011;65952;51.440;-2.054;2022-12-18T11:10:47;24.20;;;10.77;;
77022;SDS011;65952;51.440;-2.054;2022-12-18T11:13:20;21.08;;;10.90;;
77022;SDS011;65952;51.440;-2.054;2022-12-18T11:15:47;23.23;;;10.18;;
77022;SDS011;65952;51.440;-2.054;2022-12-18T11:18:22;25.67;;;11.90;;
77022;SDS011;65952;51.440;-2.054;2022-12-18T11:20:56;22.45;;;10.23;;
77022;SDS011;65952;51.440;-2.054;2022-12-18T11:23:24;25.08;;;9.75;;
77022;SDS011;65952;51.440;-2.054;2022-12-18T11:25:59;25.45;;;11.50;;
77022;SDS011;65952;51.440;-2.054;2022-12-18T11:31:24;23.13;;;8.98;;
77022;SDS011;65952;51.440;-2.054;2022-12-18T11:36:39;27.25;;;12.10;;
77022;SDS011;65952;51.440;-2.054;2022-12-18T11:39:12;22.33;;;10.15;;
77022;SDS011;65952;51.440;-2.054;2022-12-18T11:41:53;20.05;;;10.00;;
77022;SDS011;65952;51.440;-2.054;2022-12-18T11:44:48;22.13;;;10.88;;
77022;SDS011;65952;51.440;-2.054;2022-12-18T11:47:25;26.08;;;10.35;;
77022;SDS011;65952;51.440;-2.054;2022-12-18T11:50:02;34.40;;;12.00;;
77022;SDS011;65952;51.440;-2.054;2022-12-18T11:52:45;31.70;;;12.98;;
77022;SDS011;65952;51.440;-2.054;2022-12-18T11:55:12;28.52;;;11.18;;
77022;SDS011;65952;51.440;-2.054;2022-12-18T12:00:56;30.77;;;12.88;;
77022;SDS011;65952;51.440;-2.054;2022-12-18T12:25:07;26.45;;;11.23;;
77022;SDS011;65952;51.440;-2.054;2022-12-18T12:33:36;21.92;;;10.27;;
77022;SDS011;65952;51.440;-2.054;2022-12-18T12:36:21;21.98;;;9.50;;
77022;SDS011;65952;51.440;-2.054;2022-12-18T12:38:59;24.42;;;10.18;;
77022;SDS011;65952;51.440;-2.054;2022-12-18T12:41:31;17.80;;;9.77;;
77022;SDS011;65952;51.440;-2.054;2022-12-18T12:44:19;20.88;;;10.15;;
77022;SDS011;65952;51.440;-2.054;2022-12-18T12:46:49;21.35;;;9.63;;
77022;SDS011;65952;51.440;-2.054;2022-12-18T12:49:17;24.42;;;11.32;;
77022;SDS011;65952;51.440;-2.054;2022-12-18T12:51:50;20.83;;;9.13;;
77022;SDS011;65952;51.440;-2.054;2022-12-18T12:54:23;16.63;;;7.32;;
77022;SDS011;65952;51.440;-2.054;2022-12-18T13:02:24;19.10;;;7.88;;
77022;SDS011;65952;51.440;-2.054;2022-12-18T13:07:37;16.42;;;7.00;;
77022;SDS011;65952;51.440;-2.054;2022-12-18T13:18:32;15.68;;;7.55;;
77022;SDS011;65952;51.440;-2.054;2022-12-18T13:20:50;17.23;;;6.93;;
77022;SDS011;65952;51.440;-2.054;2022-12-18T13:23:36;12.77;;;6.03;;
77022;SDS011;65952;51.440;-2.054;2022-12-18T13:31:12;14.98;;;7.15;;
77022;SDS011;65952;51.440;-2.054;2022-12-18T13:38:35;7.72;;;4.68;;
77022;SDS011;65952;51.440;-2.054;2022-12-18T13:41:04;11.32;;;5.88;;
77022;SDS011;65952;51.440;-2.054;2022-12-18T13:43:42;12.02;;;5.47;;
77022;SDS011;65952;51.440;-2.054;2022-12-18T13:48:49;11.13;;;5.47;;
77022;SDS011;65952;51.440;-2.054;2022-12-18T13:51:16;10.05;;;5.47;;
77022;SDS011;65952;51.440;-2.054;2022-12-18T13:53:46;9.88;;;5.28;;
77022;SDS011;65952;51.440;-2.054;2022-12-18T13:56:16;9.15;;;4.47;;
77022;SDS011;65952;51.440;-2.054;2022-12-18T13:58:42;9.63;;;4.85;;
77022;SDS011;65952;51.440;-2.054;2022-12-18T14:01:20;8.52;;;4.13;;
77022;SDS011;65952;51.440;-2.054;2022-12-18T14:03:47;7.50;;;4.03;;
77022;SDS011;65952;51.440;-2.054;2022-12-18T14:06:13;8.13;;;4.70;;
77022;SDS011;65952;51.440;-2.054;2022-12-18T14:08:39;7.35;;;3.97;;
77022;SDS011;65952;51.440;-2.054;2022-12-18T14:11:06;6.50;;;3.50;;
77022;SDS011;65952;51.440;-2.054;2022-12-18T14:13:42;7.68;;;4.00;;
77022;SDS011;65952;51.440;-2.054;2022-12-18T14:16:11;5.85;;;3.25;;
77022;SDS011;65952;51.440;-2.054;2022-12-18T14:18:53;5.07;;;3.00;;
77022;SDS011;65952;51.440;-2.054;2022-12-18T14:21:26;3.97;;;2.40;;
77022;SDS011;65952;51.440;-2.054;2022-12-18T14:24:03;5.78;;;2.95;;
77022;SDS011;65952;51.440;-2.054;2022-12-18T14:26:40;6.22;;;3.08;;
77022;SDS011;65952;51.440;-2.054;2022-12-18T14:34:45;4.70;;;2.58;;
77022;SDS011;65952;51.440;-2.054;2022-12-18T14:37:17;4.00;;;2.22;;
77022;SDS011;65952;51.440;-2.054;2022-12-18T14:39:58;4.70;;;2.35;;
77022;SDS011;65952;51.440;-2.054;2022-12-18T14:42:26;4.28;;;2.28;;
77022;SDS011;65952;51.440;-2.054;2022-12-18T14:48:22;4.90;;;2.50;;
77022;SDS011;65952;51.440;-2.054;2022-12-18T14:51:02;5.82;;;3.03;;
77022;SDS011;65952;51.440;-2.054;2022-12-18T14:53:34;3.83;;;2.40;;
77022;SDS011;65952;51.440;-2.054;2022-12-18T14:56:27;7.10;;;2.70;;
77022;SDS011;65952;51.440;-2.054;2022-12-18T15:01:26;5.05;;;2.30;;
77022;SDS011;65952;51.440;-2.054;2022-12-18T15:03:56;5.53;;;2.80;;
77022;SDS011;65952;51.440;-2.054;2022-12-18T15:06:27;6.43;;;2.90;;
77022;SDS011;65952;51.440;-2.054;2022-12-18T15:08:53;5.15;;;2.70;;
77022;SDS011;65952;51.440;-2.054;2022-12-18T15:13:57;5.28;;;2.53;;
77022;SDS011;65952;51.440;-2.054;2022-12-18T15:16:24;4.15;;;2.28;;
77022;SDS011;65952;51.440;-2.054;2022-12-18T15:18:50;4.60;;;2.60;;
77022;SDS011;65952;51.440;-2.054;2022-12-18T15:21:19;4.78;;;2.63;;
77022;SDS011;65952;51.440;-2.054;2022-12-18T15:23:49;4.25;;;2.50;;
77022;SDS011;65952;51.440;-2.054;2022-12-18T15:26:17;5.25;;;3.05;;
77022;SDS011;65952;51.440;-2.054;2022-12-18T15:28:48;5.97;;;2.70;;
77022;SDS011;65952;51.440;-2.054;2022-12-18T15:33:41;5.55;;;2.50;;
77022;SDS011;65952;51.440;-2.054;2022-12-18T15:36:14;4.82;;;2.38;;
77022;SDS011;65952;51.440;-2.054;2022-12-18T15:38:41;5.00;;;2.65;;
77022;SDS011;65952;51.440;-2.054;2022-12-18T15:41:14;4.78;;;2.50;;
77022;SDS011;65952;51.440;-2.054;2022-12-18T15:43:41;5.28;;;2.75;;
77022;SDS011;65952;51.440;-2.054;2022-12-18T15:46:13;5.72;;;2.22;;
77022;SDS011;65952;51.440;-2.054;2022-12-18T15:48:44;4.65;;;2.50;;
77022;SDS011;65952;51.440;-2.054;2022-12-18T15:51:16;6.95;;;2.22;;
77022;SDS011;65952;51.440;-2.054;2022-12-18T15:53:45;6.07;;;2.47;;
77022;SDS011;65952;51.440;-2.054;2022-12-18T15:56:12;5.50;;;2.40;;
77022;SDS011;65952;51.440;-2.054;2022-12-18T15:58:57;4.35;;;2.28;;
77022;SDS011;65952;51.440;-2.054;2022-12-18T16:01:24;4.72;;;2.35;;
77022;SDS011;65952;51.440;-2.054;2022-12-18T16:03:52;4.90;;;2.10;;
77022;SDS011;65952;51.440;-2.054;2022-12-18T16:06:18;4.90;;;2.63;;
77022;SDS011;65952;51.440;-2.054;2022-12-18T16:08:44;3.72;;;2.03;;
77022;SDS011;65952;51.440;-2.054;2022-12-18T16:11:32;4.97;;;2.30;;
77022;SDS011;65952;51.440;-2.054;2022-12-18T16:14:08;4.88;;;2.70;;
77022;SDS011;65952;51.440;-2.054;2022-12-18T16:16:36;4.60;;;2.35;;
77022;SDS011;65952;51.440;-2.054;2022-12-18T16:19:02;3.80;;;2.20;;
77022;SDS011;65952;51.440;-2.054;2022-12-18T16:21:27;4.45;;;2.47;;
77022;SDS011;65952;51.440;-2.054;2022-12-18T16:23:52;5.75;;;2.47;;
77022;SDS011;65952;51.440;-2.054;2022-12-18T16:26:18;4.78;;;2.50;;
77022;SDS011;65952;51.440;-2.054;2022-12-18T16:28:43;5.43;;;2.58;;
77022;SDS011;65952;51.440;-2.054;2022-12-18T16:31:09;5.45;;;2.35;;
77022;SDS011;65952;51.440;-2.054;2022-12-18T16:33:34;4.68;;;2.47;;
77022;SDS011;65952;51.440;-2.054;2022-12-18T16:35:59;4.10;;;2.33;;
77022;SDS011;65952;51.440;-2.054;2022-12-18T16:38:25;5.68;;;3.00;;